Time;durP1;ratioP1;P1;durP2;ratioP2;P2;SDS_P1;SDS_P2;PMS_P1;PMS_P2;Temp;Humidity;BMP_temperature;BMP_pressure;BME280_temperature;BME280_humidity;BME280_pressure;Samples;Min_cycle;Max_cycle;Signal;HPM_P1;HPM_P2
2022/12/24 00:01:56;;;;;;;39.50;7.68;;;;;;;9.05;100.00;100611.09;5055228;28;20094;-56
2022/12/24 00:04:22;;;;;;;40.70;7.78;;;;;;;9.04;100.00;100611.22;5054859;28;20391;-55
2022/12/24 00:06:47;;;;;;;35.30;8.00;;;;;;;9.03;100.00;100626.28;5055129;28;20039;-55
2022/12/24 00:09:12;;;;;;;43.10;7.63;;;;;;;9.02;100.00;100621.94;5054574;28;20082;-55
2022/12/24 00:11:37;;;;;;;38.75;7.70;;;;;;;9.00;100.00;100607.94;5055020;28;20032;-55
2022/12/24 00:14:03;;;;;;;39.60;7.55;;;;;;;9.00;100.00;100623.84;5055395;28;20017;-55
2022/12/24 00:16:28;;;;;;;35.72;7.68;;;;;;;8.99;100.00;100621.31;5053893;28;20047;-54
2022/12/24 00:18:53;;;;;;;36.38;8.00;;;;;;;8.99;100.00;100627.47;5055226;28;20514;-54
2022/12/24 00:21:20;;;;;;;39.13;7.35;;;;;;;8.99;100.00;100626.59;5055022;28;20136;-56
2022/12/24 00:23:45;;;;;;;36.65;7.57;;;;;;;8.98;100.00;100628.41;5054697;28;20097;-55
2022/12/24 00:26:12;;;;;;;37.40;7.60;;;;;;;8.99;100.00;100637.19;5054828;28;20044;-55
2022/12/24 00:28:37;;;;;;;38.50;8.75;;;;;;;9.00;100.00;100630.97;5054952;28;20016;-55
2022/12/24 00:31:07;;;;;;;38.78;7.40;;;;;;;8.99;100.00;100638.06;5054939;28;20032;-55
2022/12/24 00:33:32;;;;;;;36.72;7.32;;;;;;;9.00;100.00;100636.25;5053862;28;20029;-55
2022/12/24 00:35:58;;;;;;;34.97;8.15;;;;;;;8.99;100.00;100638.06;5054697;28;20017;-55
2022/12/24 00:38:23;;;;;;;40.53;8.48;;;;;;;9.00;100.00;100642.38;5054767;28;20493;-55
2022/12/24 00:40:48;;;;;;;36.92;8.05;;;;;;;9.02;100.00;100645.75;5054153;28;20025;-55
2022/12/24 00:43:13;;;;;;;28.92;7.57;;;;;;;9.02;100.00;100651.06;5046771;28;20124;-56
2022/12/24 00:45:39;;;;;;;32.85;8.48;;;;;;;9.01;100.00;100662.63;5048840;28;20021;-56
2022/12/24 00:48:04;;;;;;;27.85;7.45;;;;;;;8.99;100.00;100666.34;5053403;28;20036;-56
2022/12/24 00:50:30;;;;;;;35.33;7.63;;;;;;;8.98;100.00;100662.84;5054502;28;20475;-55
2022/12/24 00:52:55;;;;;;;37.17;7.07;;;;;;;8.97;100.00;100666.44;5053604;28;20441;-55
2022/12/24 00:55:20;;;;;;;33.50;8.07;;;;;;;8.96;100.00;100683.31;5054255;28;20036;-51
2022/12/24 00:57:45;;;;;;;37.85;8.23;;;;;;;8.96;100.00;100674.50;5053152;28;20064;-51
2022/12/24 01:00:11;;;;;;;38.92;7.82;;;;;;;8.93;100.00;100675.59;5041459;28;20184;-51
2022/12/24 01:02:37;;;;;;;32.65;8.13;;;;;;;8.94;100.00;100685.22;5054040;28;20024;-51
2022/12/24 01:05:11;;;;;;;33.85;7.63;;;;;;;8.94;100.00;100689.66;5053166;28;20534;-54
2022/12/24 01:07:38;;;;;;;34.22;7.75;;;;;;;8.93;100.00;100691.47;5054077;28;20549;-53
2022/12/24 01:10:05;;;;;;;34.72;7.63;;;;;;;8.91;100.00;100690.75;5053156;28;20479;-55
2022/12/24 01:12:30;;;;;;;33.50;7.38;;;;;;;8.92;100.00;100691.59;5054050;28;20028;-55
2022/12/24 01:14:56;;;;;;;32.63;7.78;;;;;;;8.88;100.00;100694.47;5053030;28;20021;-56
2022/12/24 01:17:21;;;;;;;39.55;8.77;;;;;;;8.87;100.00;100691.91;5053793;28;20040;-56
2022/12/24 01:19:46;;;;;;;34.05;7.88;;;;;;;8.83;100.00;100690.47;5051449;28;20111;-56
2022/12/24 01:22:12;;;;;;;37.03;8.15;;;;;;;8.81;100.00;100695.00;5054015;28;20110;-55
2022/12/24 01:24:40;;;;;;;36.05;8.93;;;;;;;8.79;100.00;100710.16;5053725;28;20452;-56
2022/12/24 01:27:05;;;;;;;44.13;8.80;;;;;;;8.79;100.00;100720.75;5052883;28;20112;-55
2022/12/24 01:29:30;;;;;;;36.63;7.85;;;;;;;8.76;100.00;100713.03;5053823;28;20155;-55
2022/12/24 01:31:56;;;;;;;41.53;8.50;;;;;;;8.74;100.00;100714.94;5053764;28;20024;-56
2022/12/24 01:34:21;;;;;;;42.75;8.88;;;;;;;8.72;100.00;100715.03;5053599;28;20041;-55
2022/12/24 01:36:46;;;;;;;44.85;8.85;;;;;;;8.68;100.00;100711.78;5053765;28;20024;-55
2022/12/24 01:39:12;;;;;;;38.42;9.20;;;;;;;8.66;100.00;100724.28;5052862;28;20025;-56
2022/12/24 01:44:33;;;;;;;37.72;7.78;;;;;;;8.62;100.00;100738.66;5053535;28;20031;-55
2022/12/24 01:47:20;;;;;;;38.05;8.40;;;;;;;8.61;100.00;100733.47;5053493;28;20491;-54
2022/12/24 01:50:14;;;;;;;44.00;8.55;;;;;;;8.58;100.00;100741.66;5051984;28;20491;-56
2022/12/24 01:52:41;;;;;;;36.97;7.65;;;;;;;8.54;100.00;100737.53;5053315;28;20041;-56
2022/12/24 01:55:17;;;;;;;37.47;8.02;;;;;;;8.51;100.00;100733.31;5052788;28;20046;-54
2022/12/24 01:57:52;;;;;;;35.33;7.63;;;;;;;8.50;100.00;100736.91;5040142;28;20075;-55
2022/12/24 02:00:18;;;;;;;40.55;7.38;;;;;;;8.51;100.00;100734.16;5053088;28;20094;-55
2022/12/24 02:02:46;;;;;;;35.30;8.13;;;;;;;8.49;100.00;100736.06;5052637;28;20491;-54
2022/12/24 02:05:17;;;;;;;43.17;9.40;;;;;;;8.49;100.00;100741.34;5052846;28;20095;-56
2022/12/24 02:07:43;;;;;;;31.10;7.57;;;;;;;8.49;100.00;100749.28;5053007;28;20425;-56
2022/12/24 02:10:11;;;;;;;39.95;7.97;;;;;;;8.49;100.00;100746.66;5052375;28;20487;-55
2022/12/24 02:12:37;;;;;;;35.10;7.90;;;;;;;8.51;100.00;100751.84;5053028;28;20115;-56
2022/12/24 02:15:06;;;;;;;41.97;8.38;;;;;;;8.53;100.00;100757.84;5051664;28;20599;-55
2022/12/24 02:17:47;;;;;;;37.30;7.38;;;;;;;8.54;100.00;100754.25;5052927;28;20029;-56
2022/12/24 02:20:47;;;;;;;41.00;7.93;;;;;;;8.57;100.00;100763.78;5052267;28;20032;-56
2022/12/24 02:23:28;;;;;;;39.50;8.80;;;;;;;8.60;100.00;100767.06;5051639;28;20033;-55
2022/12/24 02:26:17;;;;;;;43.70;8.02;;;;;;;8.59;100.00;100765.34;5052959;28;20025;-56
2022/12/24 02:29:03;;;;;;;38.17;9.05;;;;;;;8.61;100.00;100771.41;5052929;28;20051;-55
2022/12/24 02:31:41;;;;;;;39.80;8.10;;;;;;;8.61;100.00;100773.19;5051582;28;20039;-55
2022/12/24 02:34:10;;;;;;;48.88;8.05;;;;;;;8.62;100.00;100775.75;5052800;28;20053;-55
2022/12/24 02:36:54;;;;;;;36.28;7.80;;;;;;;8.63;100.00;100774.78;5051581;28;20032;-56
2022/12/24 02:39:44;;;;;;;47.75;7.82;;;;;;;8.63;100.00;100782.75;5052482;28;20033;-56
2022/12/24 02:42:14;;;;;;;46.60;8.00;;;;;;;8.65;100.00;100777.34;5051771;28;20037;-56
2022/12/24 02:44:56;;;;;;;43.75;8.15;;;;;;;8.66;100.00;100782.53;5039147;28;20122;-56
2022/12/24 02:47:25;;;;;;;47.05;7.78;;;;;;;8.66;100.00;100779.88;5043548;28;20033;-55
2022/12/24 02:49:51;;;;;;;43.97;7.43;;;;;;;8.66;100.00;100777.22;5049866;28;20028;-56
2022/12/24 02:52:40;;;;;;;36.67;7.30;;;;;;;8.68;100.00;100788.56;5051978;28;20021;-56
2022/12/24 02:55:27;;;;;;;;;;;;;;;8.72;100.00;100788.34;5052895;28;20029;-55
2022/12/24 02:57:58;;;;;;;38.70;7.00;;;;;;;8.69;100.00;100782.31;5051871;28;20263;-55
2022/12/24 03:00:25;;;;;;;35.20;7.97;;;;;;;8.69;100.00;100784.09;5052275;28;20408;-55
2022/12/24 03:03:15;;;;;;;41.85;7.05;;;;;;;8.71;100.00;100782.22;5052163;28;20017;-55
2022/12/24 03:05:50;;;;;;;41.45;7.82;;;;;;;8.72;100.00;100785.69;5051000;28;20063;-56
2022/12/24 03:08:24;;;;;;;40.38;7.15;;;;;;;8.73;100.00;100787.38;5051204;28;20025;-56
2022/12/24 03:11:02;;;;;;;41.42;7.85;;;;;;;8.74;100.00;100789.09;5051542;28;20057;-53
2022/12/24 03:13:28;;;;;;;39.15;7.40;;;;;;;8.77;100.00;100799.47;5051896;28;20037;-55
2022/12/24 03:15:54;;;;;;;45.10;8.23;;;;;;;8.78;100.00;100798.53;5051729;28;20086;-55
2022/12/24 03:18:23;;;;;;;39.47;8.13;;;;;;;8.78;100.00;100788.75;5051879;28;20390;-55
2022/12/24 03:21:00;;;;;;;;;;;;;;;8.83;100.00;100791.94;5051137;28;20017;-56
2022/12/24 03:23:26;;;;;;;31.50;7.00;;;;;;;8.83;100.00;100796.41;5051466;28;19939;-56
2022/12/24 03:25:52;;;;;;;31.35;7.35;;;;;;;8.83;100.00;100797.22;5052506;28;20021;-56
2022/12/24 03:28:22;;;;;;;37.28;7.60;;;;;;;8.85;100.00;100799.78;5055077;28;20467;-55
2022/12/24 03:30:48;;;;;;;38.97;7.80;;;;;;;8.85;100.00;100797.13;5056554;28;20040;-55
2022/12/24 03:33:14;;;;;;;40.47;7.72;;;;;;;8.87;100.00;100797.88;5056118;28;20017;-56
2022/12/24 03:35:39;;;;;;;37.55;7.78;;;;;;;8.87;100.00;100798.69;5055802;28;20025;-55
2022/12/24 03:38:04;;;;;;;34.15;7.25;;;;;;;8.88;100.00;100803.06;5054916;28;20036;-56
2022/12/24 03:40:30;;;;;;;35.80;7.20;;;;;;;8.90;100.00;100808.25;5056184;28;20475;-55
2022/12/24 03:42:56;;;;;;;31.48;7.35;;;;;;;8.93;100.00;100817.78;5055488;28;20478;-56
2022/12/24 03:45:21;;;;;;;36.83;7.05;;;;;;;8.93;100.00;100815.97;5055349;28;20024;-55
2022/12/24 03:47:46;;;;;;;31.65;7.47;;;;;;;8.95;100.00;100821.19;5055583;28;20028;-56
2022/12/24 03:50:12;;;;;;;24.38;6.88;;;;;;;8.96;100.00;100820.19;5055649;28;20025;-56
2022/12/24 03:52:37;;;;;;;37.47;7.53;;;;;;;8.97;100.00;100813.97;5054900;28;20391;-56
2022/12/24 03:55:03;;;;;;;28.58;7.30;;;;;;;8.98;100.00;100813.84;5055303;28;20467;-56
2022/12/24 03:57:28;;;;;;;33.55;7.40;;;;;;;8.99;100.00;100822.63;5055289;28;20051;-56
2022/12/24 03:59:53;;;;;;;31.92;7.38;;;;;;;8.97;100.00;100817.44;5055497;28;20540;-55
2022/12/24 04:02:18;;;;;;;29.90;6.95;;;;;;;8.99;100.00;100817.34;5054532;28;20029;-55
2022/12/24 04:04:44;;;;;;;26.20;6.72;;;;;;;8.99;100.00;100826.16;5055376;28;20433;-55
2022/12/24 04:07:09;;;;;;;35.53;7.35;;;;;;;9.00;100.00;100825.19;5053961;28;20108;-56
2022/12/24 04:09:35;;;;;;;33.58;7.55;;;;;;;8.99;100.00;100820.84;5056538;28;20048;-55
2022/12/24 04:12:00;;;;;;;30.20;8.10;;;;;;;8.99;100.00;100823.50;5055587;28;20060;-55
2022/12/24 04:14:25;;;;;;;30.77;6.88;;;;;;;8.99;100.00;100826.16;5054444;28;20033;-55
2022/12/24 04:16:51;;;;;;;27.15;6.63;;;;;;;9.00;100.00;100827.84;5055208;28;20036;-55
2022/12/24 04:19:16;;;;;;;31.30;7.43;;;;;;;8.99;100.00;100826.16;5055188;28;20128;-54
2022/12/24 04:21:41;;;;;;;37.25;7.43;;;;;;;8.99;100.00;100831.47;5054174;28;20033;-55
2022/12/24 04:24:07;;;;;;;31.50;7.78;;;;;;;9.02;100.00;100838.31;5055114;28;20040;-55
2022/12/24 04:26:32;;;;;;;32.28;7.40;;;;;;;9.02;100.00;100840.97;5055238;28;20021;-55
2022/12/24 04:28:57;;;;;;;31.08;6.95;;;;;;;9.02;100.00;100847.09;5054658;28;20483;-55
2022/12/24 04:31:23;;;;;;;34.08;7.32;;;;;;;9.03;100.00;100845.31;5055056;28;20131;-56
2022/12/24 04:33:50;;;;;;;33.75;8.02;;;;;;;9.01;100.00;100837.47;5055053;28;20096;-56
2022/12/24 04:36:17;;;;;;;34.10;8.93;;;;;;;9.01;100.00;100848.09;5054407;28;20017;-56
2022/12/24 04:38:43;;;;;;;31.17;7.78;;;;;;;9.03;100.00;100843.50;5053848;28;20232;-56
2022/12/24 04:41:22;;;;;;;36.53;7.97;;;;;;;9.03;100.00;100851.47;5054822;28;20029;-54
2022/12/24 04:43:48;;;;;;;36.50;8.45;;;;;;;9.03;100.00;100851.47;5054643;28;20083;-54
2022/12/24 04:46:20;;;;;;;31.67;7.97;;;;;;;9.01;100.00;100849.88;5054903;28;20021;-55
2022/12/24 04:48:47;;;;;;;37.35;7.63;;;;;;;9.02;100.00;100856.88;5054220;28;20029;-56
2022/12/24 04:51:14;;;;;;;35.00;8.25;;;;;;;9.01;100.00;100844.56;5054362;28;20098;-56
2022/12/24 04:53:41;;;;;;;37.80;7.15;;;;;;;9.00;100.00;100846.38;5054633;28;20025;-56
2022/12/24 04:56:15;;;;;;;32.58;7.10;;;;;;;8.98;100.00;100853.59;5053595;28;20911;-54
2022/12/24 04:58:40;;;;;;;38.70;8.20;;;;;;;8.98;100.00;100850.09;5054495;28;20025;-56
2022/12/24 05:01:10;;;;;;;36.88;7.53;;;;;;;8.98;100.00;100861.53;5043077;28;20025;-56
2022/12/24 05:03:36;;;;;;;32.30;6.85;;;;;;;8.96;100.00;100860.81;5053185;28;20562;-55
2022/12/24 05:06:11;;;;;;;31.42;5.85;;;;;;;8.96;100.00;100862.59;5053851;28;20112;-60
2022/12/24 05:08:37;;;;;;;40.30;6.82;;;;;;;8.96;100.00;100854.63;5054060;28;20379;-56
2022/12/24 05:11:02;;;;;;;30.38;6.78;;;;;;;8.97;100.00;100866.94;5053772;28;20116;-56
2022/12/24 05:13:28;;;;;;;29.60;6.40;;;;;;;8.96;100.00;100881.13;5054112;28;20490;-56
2022/12/24 05:15:54;;;;;;;36.40;6.55;;;;;;;8.95;100.00;100869.69;5054028;28;20041;-55
2022/12/24 05:18:20;;;;;;;33.38;6.93;;;;;;;8.95;100.00;100868.84;5053969;28;20501;-55
2022/12/24 05:20:46;;;;;;;36.15;6.93;;;;;;;8.95;100.00;100861.75;5053318;28;20029;-56
2022/12/24 05:26:22;;;;;;;34.90;6.47;;;;;;;8.95;100.00;100858.25;5054146;28;20094;-56
2022/12/24 05:28:49;;;;;;;30.48;6.57;;;;;;;8.93;100.00;100863.66;5052722;28;20029;-56
2022/12/24 05:31:14;;;;;;;36.10;6.38;;;;;;;8.91;100.00;100860.28;5053707;28;20033;-56
2022/12/24 05:33:39;;;;;;;38.33;7.03;;;;;;;8.91;100.00;100859.41;5053797;28;20378;-56
2022/12/24 05:36:05;;;;;;;32.03;6.93;;;;;;;8.91;100.00;100872.66;5052956;28;20028;-54
2022/12/24 05:38:30;;;;;;;33.42;7.05;;;;;;;8.88;100.00;100869.28;5046345;28;20052;-55
2022/12/24 05:40:56;;;;;;;37.72;7.05;;;;;;;8.88;100.00;100868.44;5047075;28;20025;-55
2022/12/24 05:43:21;;;;;;;34.97;6.72;;;;;;;8.87;100.00;100875.50;5053452;28;20068;-54
2022/12/24 05:45:47;;;;;;;33.60;6.82;;;;;;;8.87;100.00;100882.63;5053433;28;20087;-55
2022/12/24 05:48:12;;;;;;;36.25;6.95;;;;;;;8.85;100.00;100885.38;5053603;28;20024;-56
2022/12/24 05:50:39;;;;;;;37.25;7.32;;;;;;;8.84;100.00;100896.06;5050781;28;20025;-55
2022/12/24 05:53:04;;;;;;;30.70;6.75;;;;;;;8.83;100.00;100903.16;5053021;28;20032;-56
2022/12/24 05:55:30;;;;;;;39.03;6.55;;;;;;;8.83;100.00;100903.16;5052996;28;20021;-56
2022/12/24 05:57:55;;;;;;;33.40;7.55;;;;;;;8.84;100.00;100904.00;5052724;28;20029;-56
2022/12/24 06:00:20;;;;;;;33.95;6.65;;;;;;;8.82;100.00;100903.28;5053002;28;20056;-55
2022/12/24 06:02:46;;;;;;;40.17;7.72;;;;;;;8.83;100.00;100907.63;5052735;28;20112;-55
2022/12/24 06:05:11;;;;;;;36.25;7.47;;;;;;;8.83;100.00;100916.41;5052760;28;20040;-56
2022/12/24 06:07:37;;;;;;;34.25;7.15;;;;;;;8.82;100.00;100916.50;5052460;28;20488;-56
2022/12/24 06:10:03;;;;;;;31.13;7.22;;;;;;;8.82;100.00;100908.56;5052844;28;20522;-55
2022/12/24 06:12:29;;;;;;;27.75;6.97;;;;;;;8.81;100.00;100902.44;5040835;28;20352;-55
2022/12/24 06:14:54;;;;;;;31.27;7.10;;;;;;;8.80;100.00;100908.69;5051851;28;20032;-54
2022/12/24 06:17:19;;;;;;;30.73;7.38;;;;;;;8.82;100.00;100905.94;5053279;28;20096;-52
2022/12/24 06:19:45;;;;;;;35.40;7.40;;;;;;;8.82;100.00;100908.56;5052797;28;20159;-54
2022/12/24 06:22:10;;;;;;;29.60;6.38;;;;;;;8.82;100.00;100924.47;5051848;28;20061;-55
2022/12/24 06:24:35;;;;;;;30.08;7.30;;;;;;;8.80;100.00;100918.44;5052895;28;20029;-55
2022/12/24 06:27:01;;;;;;;35.88;7.60;;;;;;;8.78;100.00;100912.41;5052581;28;20029;-55
2022/12/24 06:29:26;;;;;;;39.03;8.23;;;;;;;8.75;100.00;100924.03;5052458;28;20110;-54
2022/12/24 06:31:51;;;;;;;35.25;7.93;;;;;;;8.75;100.00;100933.78;5052582;28;20021;-53
2022/12/24 06:34:16;;;;;;;32.03;7.03;;;;;;;8.71;100.00;100925.22;5053034;28;20112;-55
2022/12/24 06:36:42;;;;;;;34.72;7.50;;;;;;;8.68;100.00;100944.78;5052870;28;20456;-55
2022/12/24 06:39:07;;;;;;;32.28;7.22;;;;;;;8.66;100.00;100937.88;5051922;28;20091;-56
2022/12/24 06:41:32;;;;;;;29.00;6.97;;;;;;;8.65;100.00;100938.84;5052173;28;20112;-56
2022/12/24 06:43:58;;;;;;;36.65;7.90;;;;;;;8.62;100.00;100952.28;5051629;28;20386;-53
2022/12/24 06:46:23;;;;;;;33.53;7.90;;;;;;;8.61;100.00;100938.22;5050456;28;20036;-54
2022/12/24 06:48:49;;;;;;;37.42;8.52;;;;;;;8.61;100.00;100940.00;5051756;28;20027;-54
2022/12/24 06:51:18;;;;;;;32.97;7.55;;;;;;;8.59;100.00;100939.25;5052115;28;20016;-56
2022/12/24 06:53:43;;;;;;;;;;;;;;;8.64;100.00;100942.44;5048242;28;20032;-56
2022/12/24 06:56:11;;;;;;;44.10;8.27;;;;;;;8.58;100.00;100951.66;5048827;28;19971;-56
2022/12/24 06:58:36;;;;;;;39.85;8.57;;;;;;;8.58;100.00;100941.06;5051433;28;20086;-56
2022/12/24 07:01:07;;;;;;;38.90;8.35;;;;;;;8.59;100.00;100955.13;5050685;28;20033;-56
2022/12/24 07:03:33;;;;;;;40.78;8.65;;;;;;;8.58;100.00;100956.09;5052346;28;20021;-55
2022/12/24 07:05:59;;;;;;;35.90;8.40;;;;;;;8.56;100.00;100950.03;5050507;28;20413;-56
2022/12/24 07:08:24;;;;;;;36.40;7.70;;;;;;;8.52;100.00;100952.88;5034044;28;20037;-55
2022/12/24 07:10:51;;;;;;;48.63;8.90;;;;;;;8.50;100.00;100961.91;5045180;28;20388;-54
2022/12/24 07:13:17;;;;;;;39.35;8.25;;;;;;;8.47;100.00;100962.09;5042461;28;20490;-55
2022/12/24 07:15:42;;;;;;;32.47;7.63;;;;;;;8.48;100.00;100963.81;5048639;28;20048;-56
2022/12/24 07:18:08;;;;;;;33.80;7.63;;;;;;;8.46;100.00;100961.25;5033003;28;20041;-53
2022/12/24 07:20:33;;;;;;;35.33;8.45;;;;;;;8.47;100.00;100960.28;5047624;28;20021;-55
2022/12/24 07:22:59;;;;;;;40.95;8.60;;;;;;;8.46;100.00;100963.03;5047424;28;20533;-56
2022/12/24 07:25:24;;;;;;;41.92;7.97;;;;;;;8.44;100.00;100963.16;5046646;28;20121;-56
2022/12/24 07:27:50;;;;;;;36.28;7.78;;;;;;;8.43;100.00;100968.56;5035591;28;20041;-55
2022/12/24 07:30:15;;;;;;;36.05;7.72;;;;;;;8.43;100.00;100973.84;5045497;28;20040;-53
2022/12/24 07:32:40;;;;;;;29.83;7.00;;;;;;;8.41;100.00;100976.56;5038901;28;20047;-52
2022/12/24 07:35:06;;;;;;;39.53;8.32;;;;;;;8.41;100.00;100987.16;5040706;28;20030;-52
2022/12/24 07:37:31;;;;;;;35.53;7.55;;;;;;;8.40;100.00;100988.09;5044011;28;20052;-55
2022/12/24 07:39:57;;;;;;;42.85;8.43;;;;;;;8.39;100.00;100991.66;5047133;28;20040;-53
2022/12/24 07:42:22;;;;;;;43.60;8.50;;;;;;;8.36;100.00;100988.38;5037013;28;20376;-54
2022/12/24 07:44:47;;;;;;;32.40;7.60;;;;;;;8.34;100.00;100994.63;5046181;28;20031;-53
2022/12/24 07:47:13;;;;;;;32.47;7.03;;;;;;;8.34;100.00;101001.69;5046537;28;20033;-53
2022/12/24 07:49:38;;;;;;;41.50;8.27;;;;;;;8.32;100.00;100999.16;5046855;28;20027;-52
2022/12/24 07:52:03;;;;;;;38.22;7.80;;;;;;;8.31;100.00;101010.72;5046913;28;20025;-53
2022/12/24 07:54:29;;;;;;;37.60;7.15;;;;;;;8.31;100.00;101013.34;5048112;28;20136;-55
2022/12/24 07:56:54;;;;;;;37.30;7.32;;;;;;;8.31;100.00;101023.06;5049102;28;20359;-54
2022/12/24 07:59:20;;;;;;;37.22;7.93;;;;;;;8.31;100.00;101023.06;5047594;28;20540;-56
2022/12/24 08:01:45;;;;;;;36.50;7.15;;;;;;;8.31;100.00;101031.88;5047043;28;20031;-56
2022/12/24 08:04:11;;;;;;;38.72;7.70;;;;;;;8.32;100.00;101033.56;5045628;28;20386;-55
2022/12/24 08:06:36;;;;;;;36.75;7.60;;;;;;;8.33;100.00;101035.28;5045562;28;20478;-56
2022/12/24 08:09:02;;;;;;;36.08;6.80;;;;;;;8.35;100.00;101043.13;5047854;28;20049;-56
2022/12/24 08:11:27;;;;;;;33.47;7.38;;;;;;;8.37;100.00;101043.03;5047949;28;20066;-56
2022/12/24 08:13:53;;;;;;;37.90;7.53;;;;;;;8.36;100.00;101044.81;5048175;28;20147;-56
2022/12/24 08:16:18;;;;;;;36.95;6.60;;;;;;;8.37;100.00;101059.75;5051306;28;20115;-57
2022/12/24 08:18:43;;;;;;;45.97;7.90;;;;;;;8.37;100.00;101064.19;5050491;28;21170;-56
2022/12/24 08:21:09;;;;;;;37.40;7.53;;;;;;;8.36;100.00;101059.84;5050763;28;20031;-55
2022/12/24 08:23:37;;;;;;;38.10;7.20;;;;;;;8.37;100.00;101066.84;5050529;28;20050;-52
2022/12/24 08:26:06;;;;;;;33.67;6.72;;;;;;;8.37;100.00;101067.69;5051179;28;20542;-56
2022/12/24 08:28:32;;;;;;;39.25;7.90;;;;;;;8.38;100.00;101074.69;5051321;28;20033;-55
2022/12/24 08:30:58;;;;;;;35.75;7.78;;;;;;;8.41;100.00;101078.91;5051776;28;20025;-56
2022/12/24 08:33:23;;;;;;;38.47;7.43;;;;;;;8.44;100.00;101076.09;5047168;28;20045;-54
2022/12/24 08:35:54;;;;;;;38.22;7.13;;;;;;;8.43;100.00;101075.25;5045674;28;20074;-55
2022/12/24 08:38:19;;;;;;;38.88;6.68;;;;;;;8.45;100.00;101089.25;5047496;28;20049;-56
2022/12/24 08:40:48;;;;;;;26.92;6.68;;;;;;;8.45;100.00;101072.53;5051717;28;20049;-56
2022/12/24 08:43:15;;;;;;;37.35;7.57;;;;;;;8.48;100.00;101082.91;5049061;28;20037;-57
2022/12/24 08:45:41;;;;;;;30.92;7.43;;;;;;;8.49;100.00;101076.66;5049205;28;20119;-57
2022/12/24 08:48:08;;;;;;;37.28;8.30;;;;;;;8.51;100.00;101077.44;5046415;28;20041;-56
2022/12/24 08:50:34;;;;;;;35.38;7.75;;;;;;;8.51;100.00;101090.66;5045122;28;20052;-56
2022/12/24 08:52:59;;;;;;;43.42;8.07;;;;;;;8.55;100.00;101088.66;5049200;28;20045;-56
2022/12/24 08:55:24;;;;;;;36.13;7.53;;;;;;;8.54;100.00;101098.38;5045895;28;20431;-55
2022/12/24 08:57:50;;;;;;;42.15;7.55;;;;;;;8.55;100.00;101096.63;5049469;28;20419;-55
2022/12/24 09:00:15;;;;;;;39.78;7.95;;;;;;;8.55;100.00;101099.25;5048375;28;20079;-54
2022/12/24 09:02:41;;;;;;;46.60;8.45;;;;;;;8.54;100.00;101098.38;5049565;28;20031;-57
2022/12/24 09:05:06;;;;;;;34.97;7.43;;;;;;;8.54;100.00;101103.69;5045667;28;20029;-54
2022/12/24 09:07:32;;;;;;;40.00;8.65;;;;;;;8.55;100.00;101110.69;5049680;28;20682;-54
2022/12/24 09:09:57;;;;;;;41.15;8.10;;;;;;;8.54;100.00;101118.72;5052571;28;20492;-54
2022/12/24 09:12:22;;;;;;;39.70;8.27;;;;;;;8.54;100.00;101116.94;5043941;28;20025;-54
2022/12/24 09:14:50;;;;;;;38.83;8.27;;;;;;;8.55;100.00;101118.63;5043114;28;20063;-55
2022/12/24 09:17:15;;;;;;;41.17;8.00;;;;;;;8.56;100.00;101124.78;5048476;28;20075;-55
2022/12/24 09:19:40;;;;;;;35.47;8.30;;;;;;;8.59;100.00;101136.00;5041914;28;20029;-54
2022/12/24 09:22:05;;;;;;;40.05;7.82;;;;;;;8.60;100.00;101140.38;5043856;28;20089;-56
2022/12/24 09:24:31;;;;;;;37.92;8.25;;;;;;;8.61;100.00;101147.38;5027705;28;20043;-56
2022/12/24 09:26:58;;;;;;;41.35;8.90;;;;;;;8.63;100.00;101156.06;5047230;28;20368;-53
2022/12/24 09:29:23;;;;;;;39.03;8.10;;;;;;;8.64;100.00;101155.13;5048197;28;20451;-55
2022/12/24 09:31:48;;;;;;;36.70;7.50;;;;;;;8.69;100.00;101155.69;5049965;28;20120;-55
2022/12/24 09:34:14;;;;;;;41.22;8.65;;;;;;;8.74;100.00;101157.19;5050619;28;20071;-54
2022/12/24 09:36:39;;;;;;;47.40;8.90;;;;;;;8.76;100.00;101158.78;5047893;28;20368;-53
2022/12/24 09:39:04;;;;;;;38.10;7.97;;;;;;;8.78;100.00;101159.53;5045149;28;20376;-52
2022/12/24 09:42:15;;;;;;;40.90;9.35;;;;;;;8.83;100.00;101169.84;5045491;28;20499;-55
2022/12/24 09:45:02;;;;;;;37.72;7.93;;;;;;;8.88;100.00;101165.09;5044476;28;20037;-54
2022/12/24 09:47:27;;;;;;;42.28;8.02;;;;;;;8.88;100.00;101168.59;5046408;28;20032;-54
2022/12/24 09:49:56;;;;;;;40.90;8.47;;;;;;;8.88;100.00;101171.25;5046441;28;20045;-54
2022/12/24 09:52:44;;;;;;;46.00;8.57;;;;;;;8.93;100.00;101178.91;5050987;28;20279;-56
2022/12/24 09:55:32;;;;;;;34.22;8.52;;;;;;;8.93;100.00;101186.00;5048461;28;20120;-55
2022/12/24 09:58:01;;;;;;;38.50;8.95;;;;;;;8.93;100.00;101184.19;5049097;28;20406;-52
2022/12/24 10:00:34;;;;;;;43.55;9.07;;;;;;;8.94;100.00;101190.34;5048009;28;20522;-53
2022/12/24 10:02:59;;;;;;;41.67;8.98;;;;;;;8.95;100.00;101200.00;5049193;28;20040;-52
2022/12/24 10:05:42;;;;;;;36.53;8.60;;;;;;;8.96;100.00;101207.84;5048471;28;20491;-53
2022/12/24 10:08:20;;;;;;;47.08;8.93;;;;;;;8.97;100.00;101190.13;5044027;28;20131;-53
2022/12/24 10:10:52;;;;;;;45.83;9.55;;;;;;;8.96;100.00;101197.25;5046212;28;20048;-53
2022/12/24 10:13:23;;;;;;;36.03;7.75;;;;;;;8.97;100.00;101196.28;5040175;28;20025;-54
2022/12/24 10:16:06;;;;;;;37.35;8.30;;;;;;;8.99;100.00;101202.34;5043709;28;20052;-54
2022/12/24 10:18:51;;;;;;;39.22;8.52;;;;;;;9.01;100.00;101202.22;5041966;28;20034;-55
2022/12/24 10:21:44;;;;;;;41.15;8.90;;;;;;;9.01;100.00;101184.56;5044838;28;20049;-54
2022/12/24 10:24:23;;;;;;;42.92;8.05;;;;;;;9.02;100.00;101191.53;5044963;28;20037;-53
2022/12/24 10:27:18;;;;;;;34.95;8.23;;;;;;;9.06;100.00;101189.56;5045347;28;20041;-55
2022/12/24 10:29:47;;;;;;;35.83;8.07;;;;;;;9.06;100.00;101189.56;5046777;28;20069;-54
2022/12/24 10:32:27;;;;;;;40.85;7.70;;;;;;;9.10;100.00;101185.75;5047094;28;20517;-57
2022/12/24 10:34:58;;;;;;;45.50;9.68;;;;;;;9.13;100.00;101184.72;5044535;28;20042;-55
2022/12/24 10:37:27;;;;;;;40.80;8.82;;;;;;;9.13;100.00;101197.97;5039412;28;20501;-55
2022/12/24 10:39:53;;;;;;;45.03;8.65;;;;;;;9.13;100.00;101197.97;5038352;28;20029;-56
2022/12/24 10:42:22;;;;;;;39.95;8.85;;;;;;;9.14;100.00;101191.69;5037995;28;20077;-56
2022/12/24 10:44:54;;;;;;;34.05;8.50;;;;;;;9.15;100.00;101199.53;5037142;28;20079;-56
2022/12/24 10:47:21;;;;;;;35.38;8.73;;;;;;;9.14;100.00;101205.78;5044517;28;20032;-55
2022/12/24 10:49:56;;;;;;;35.38;8.88;;;;;;;9.17;100.00;101210.03;5048442;28;20024;-56
2022/12/24 10:52:26;;;;;;;39.25;8.98;;;;;;;9.17;100.00;101195.00;5041366;28;20034;-53
2022/12/24 10:55:06;;;;;;;41.92;8.93;;;;;;;9.20;100.00;101199.25;5050072;28;20035;-55
2022/12/24 10:57:32;;;;;;;40.45;8.40;;;;;;;9.21;100.00;101203.63;5048297;28;20559;-54
2022/12/24 10:59:58;;;;;;;39.35;8.60;;;;;;;9.24;100.00;101206.91;5047991;28;20033;-56
2022/12/24 11:02:27;;;;;;;36.97;8.40;;;;;;;9.28;100.00;101204.06;5047112;28;20043;-56
2022/12/24 11:04:53;;;;;;;42.47;8.82;;;;;;;9.30;100.00;101196.84;5042905;28;20040;-56
2022/12/24 11:07:21;;;;;;;45.15;8.57;;;;;;;9.33;100.00;101212.56;5020705;28;20490;-56
2022/12/24 11:10:01;;;;;;;37.13;8.23;;;;;;;9.35;100.00;101208.84;5047304;28;20468;-52
2022/12/24 11:12:36;;;;;;;35.53;8.32;;;;;;;9.38;100.00;101210.47;5046899;28;20053;-56
2022/12/24 11:15:23;;;;;;;31.23;7.93;;;;;;;9.40;100.00;101214.69;5037063;28;20526;-55
2022/12/24 11:18:03;;;;;;;38.13;8.10;;;;;;;9.43;100.00;101205.69;5045442;28;20037;-56
2022/12/24 11:20:31;;;;;;;34.40;8.60;;;;;;;9.44;100.00;101205.59;5038174;28;20112;-55
2022/12/24 11:22:57;;;;;;;31.57;8.53;;;;;;;9.48;100.00;101206.25;5047628;28;20040;-56
2022/12/24 11:25:30;;;;;;;32.78;8.50;;;;;;;9.52;100.00;101206.88;5037904;28;20495;-55
2022/12/24 11:28:08;;;;;;;41.55;8.82;;;;;;;9.57;100.00;101212.72;5032048;28;20075;-56
2022/12/24 11:30:34;;;;;;;34.67;8.70;;;;;;;9.61;100.00;101222.19;5034065;28;20040;-53